Time;durP1;ratioP1;P1;durP2;ratioP2;P2;SDS_P1;SDS_P2;PMS_P1;PMS_P2;Temp;Humidity;BMP_temperature;BMP_pressure;BME280_temperature;BME280_humidity;BME280_pressure;Samples;Min_cycle;Max_cycle;Signal;HPM_P1;HPM_P2
2021/09/03 00:01:43;;;;;;;22.30;17.17;;;;;;;;;;5053239;28;20503;-72
2021/09/03 00:04:10;;;;;;;25.83;17.30;;;;;;;;;;5052959;28;20812;-72
2021/09/03 00:06:37;;;;;;;21.97;17.00;;;;;;;;;;5053229;28;20441;-72
2021/09/03 00:09:06;;;;;;;25.57;18.50;;;;;;;;;;5053746;28;20445;-72
2021/09/03 00:11:33;;;;;;;20.47;16.57;;;;;;;;;;5052903;28;20457;-72
2021/09/03 00:14:00;;;;;;;23.40;17.37;;;;;;;;;;5053041;28;20933;-72
2021/09/03 00:16:27;;;;;;;21.43;17.20;;;;;;;;;;5052837;28;20458;-72
2021/09/03 00:18:54;;;;;;;25.60;18.80;;;;;;;;;;5053305;28;20952;-72
2021/09/03 00:21:22;;;;;;;21.07;17.00;;;;;;;;;;5052770;28;20995;-72
2021/09/03 00:23:49;;;;;;;24.80;17.20;;;;;;;;;;5053113;28;20469;-72
2021/09/03 00:26:17;;;;;;;26.43;18.20;;;;;;;;;;5053069;28;20449;-72
2021/09/03 00:28:44;;;;;;;20.43;17.50;;;;;;;;;;5053059;28;20445;-72
2021/09/03 00:31:12;;;;;;;19.97;17.20;;;;;;;;;;5053049;28;20446;-72
2021/09/03 00:33:39;;;;;;;26.17;17.33;;;;;;;;;;5053071;28;20448;-73
2021/09/03 00:36:06;;;;;;;30.30;16.60;;;;;;;;;;5053695;28;20452;-72
2021/09/03 00:38:33;;;;;;;24.17;17.63;;;;;;;;;;5054412;28;20438;-72
2021/09/03 00:41:00;;;;;;;22.50;17.57;;;;;;;;;;5056365;28;21007;-73
2021/09/03 00:43:29;;;;;;;27.03;17.33;;;;;;;;;;5056424;28;20929;-73
2021/09/03 00:45:57;;;;;;;23.97;19.13;;;;;;;;;;5056956;28;20816;-73
2021/09/03 00:48:24;;;;;;;21.90;17.80;;;;;;;;;;5056545;28;20482;-73
2021/09/03 00:50:52;;;;;;;25.10;17.50;;;;;;;;;;5056991;28;20438;-73
2021/09/03 00:53:20;;;;;;;19.90;17.80;;;;;;;;;;5056550;28;20445;-73
2021/09/03 00:55:47;;;;;;;22.60;18.50;;;;;;;;;;5056995;28;20444;-73
2021/09/03 00:58:14;;;;;;;22.07;17.90;;;;;;;;;;5056645;28;20448;-72
2021/09/03 01:00:43;;;;;;;23.83;21.27;;;;;;;;;;5056343;28;20481;-72
2021/09/03 01:03:10;;;;;;;24.27;16.03;;;;;;;;;;5056392;28;20448;-72
2021/09/03 01:05:37;;;;;;;26.70;18.53;;;;;;;;;;5056290;28;20444;-72
2021/09/03 01:08:05;;;;;;;20.30;16.80;;;;;;;;;;5055996;28;20440;-72
2021/09/03 01:10:32;;;;;;;21.83;17.10;;;;;;;;;;5056181;28;20459;-72
2021/09/03 01:12:59;;;;;;;26.00;19.30;;;;;;;;;;5056324;28;20443;-72
2021/09/03 01:15:26;;;;;;;32.17;19.77;;;;;;;;;;5056187;28;20442;-72
2021/09/03 01:17:55;;;;;;;25.83;21.80;;;;;;;;;;5055833;28;20453;-72
2021/09/03 01:20:22;;;;;;;23.07;18.30;;;;;;;;;;5056360;28;20834;-72
2021/09/03 01:22:51;;;;;;;22.23;17.80;;;;;;;;;;5056008;28;20431;-72
2021/09/03 01:25:19;;;;;;;22.10;18.37;;;;;;;;;;5055902;28;20447;-72
2021/09/03 01:27:46;;;;;;;24.93;18.87;;;;;;;;;;5055567;28;20514;-72
2021/09/03 01:30:15;;;;;;;24.47;18.73;;;;;;;;;;5056021;28;20444;-72
2021/09/03 01:32:42;;;;;;;22.53;18.97;;;;;;;;;;5055896;28;20450;-72
2021/09/03 01:35:09;;;;;;;24.10;18.10;;;;;;;;;;5055487;28;20437;-72
2021/09/03 01:37:37;;;;;;;24.00;18.07;;;;;;;;;;5055719;28;20435;-72
2021/09/03 01:40:06;;;;;;;26.03;17.20;;;;;;;;;;5055611;28;20447;-72
2021/09/03 01:42:33;;;;;;;25.77;19.40;;;;;;;;;;5056432;28;20762;-71
2021/09/03 01:45:00;;;;;;;24.17;19.23;;;;;;;;;;5055592;28;20473;-72
2021/09/03 01:47:27;;;;;;;25.90;19.30;;;;;;;;;;5055577;28;20442;-72
2021/09/03 01:49:55;;;;;;;28.37;19.93;;;;;;;;;;5054942;28;20961;-72
2021/09/03 01:52:22;;;;;;;25.37;18.80;;;;;;;;;;5056024;28;20447;-72
2021/09/03 01:54:49;;;;;;;28.90;20.07;;;;;;;;;;5055081;28;20496;-72
2021/09/03 01:57:18;;;;;;;28.33;20.17;;;;;;;;;;5055032;28;20448;-72
2021/09/03 01:59:45;;;;;;;32.10;20.70;;;;;;;;;;5055338;28;20446;-71
2021/09/03 02:02:12;;;;;;;26.40;19.50;;;;;;;;;;5054926;28;20985;-71
2021/09/03 02:04:39;;;;;;;21.40;18.63;;;;;;;;;;5055390;28;20808;-71
2021/09/03 02:07:07;;;;;;;29.60;19.23;;;;;;;;;;5055109;28;20938;-71
2021/09/03 02:09:34;;;;;;;26.40;19.47;;;;;;;;;;5055673;28;20802;-71
2021/09/03 02:12:01;;;;;;;28.80;20.10;;;;;;;;;;5055072;28;20815;-71
2021/09/03 02:14:29;;;;;;;22.10;18.27;;;;;;;;;;5054761;28;20930;-72
2021/09/03 02:16:56;;;;;;;29.03;19.53;;;;;;;;;;5055791;28;20442;-71
2021/09/03 02:19:24;;;;;;;25.90;19.70;;;;;;;;;;5054593;28;20453;-72
2021/09/03 02:21:51;;;;;;;26.77;20.80;;;;;;;;;;5054901;28;20480;-71
2021/09/03 02:24:18;;;;;;;24.70;20.50;;;;;;;;;;5054580;28;20455;-71
2021/09/03 02:26:45;;;;;;;25.20;19.43;;;;;;;;;;5054484;28;20457;-72
2021/09/03 02:29:12;;;;;;;23.93;20.43;;;;;;;;;;5054456;28;20446;-72
2021/09/03 02:31:41;;;;;;;29.80;21.23;;;;;;;;;;5054997;28;20449;-72
2021/09/03 02:34:08;;;;;;;31.03;21.83;;;;;;;;;;5055026;28;20436;-72
2021/09/03 02:36:35;;;;;;;26.70;20.87;;;;;;;;;;5054353;28;20451;-72
2021/09/03 02:39:02;;;;;;;26.13;20.60;;;;;;;;;;5054568;28;20446;-72
2021/09/03 02:41:30;;;;;;;26.80;21.03;;;;;;;;;;5054597;28;20478;-72
2021/09/03 02:43:57;;;;;;;29.50;21.63;;;;;;;;;;5054138;28;20453;-72
2021/09/03 02:46:24;;;;;;;28.70;21.87;;;;;;;;;;5054438;28;20800;-72
2021/09/03 02:48:53;;;;;;;23.50;19.77;;;;;;;;;;5054396;28;20467;-74
2021/09/03 02:51:20;;;;;;;26.00;21.53;;;;;;;;;;5054343;28;20445;-72
2021/09/03 02:53:47;;;;;;;31.77;20.90;;;;;;;;;;5054232;28;20449;-72
2021/09/03 02:56:14;;;;;;;26.10;19.97;;;;;;;;;;5053952;28;20442;-71
2021/09/03 02:58:41;;;;;;;26.27;20.60;;;;;;;;;;5053899;28;20444;-72
2021/09/03 03:01:08;;;;;;;28.97;22.47;;;;;;;;;;5052983;28;20474;-71
2021/09/03 03:03:36;;;;;;;24.27;20.87;;;;;;;;;;5053798;28;20958;-72
2021/09/03 03:06:04;;;;;;;27.80;21.93;;;;;;;;;;5054888;28;20442;-71
2021/09/03 03:08:31;;;;;;;23.23;20.73;;;;;;;;;;5053724;28;20438;-72
2021/09/03 03:10:59;;;;;;;24.67;22.10;;;;;;;;;;5053662;28;20455;-72
2021/09/03 03:13:28;;;;;;;31.57;24.37;;;;;;;;;;5053960;28;20450;-72
2021/09/03 03:15:55;;;;;;;29.10;23.83;;;;;;;;;;5053900;28;20465;-72
2021/09/03 03:18:22;;;;;;;34.57;24.40;;;;;;;;;;5054588;28;21028;-71
2021/09/03 03:20:50;;;;;;;32.97;24.30;;;;;;;;;;5053737;28;20449;-72
2021/09/03 03:23:19;;;;;;;25.10;22.40;;;;;;;;;;5053471;28;20445;-72
2021/09/03 03:25:46;;;;;;;30.67;24.30;;;;;;;;;;5053716;28;20466;-72
2021/09/03 03:28:13;;;;;;;29.93;22.70;;;;;;;;;;5053434;28;20445;-72
2021/09/03 03:30:41;;;;;;;31.30;24.60;;;;;;;;;;5054449;28;20442;-72
2021/09/03 03:33:08;;;;;;;29.23;25.10;;;;;;;;;;5053379;28;20451;-72
2021/09/03 03:35:35;;;;;;;28.33;22.60;;;;;;;;;;5053275;28;20444;-72
2021/09/03 03:38:02;;;;;;;33.97;24.27;;;;;;;;;;5053312;28;20533;-72
2021/09/03 03:40:31;;;;;;;27.50;23.80;;;;;;;;;;5053189;28;20933;-71
2021/09/03 03:42:58;;;;;;;30.07;22.73;;;;;;;;;;5053079;28;20481;-72
2021/09/03 03:45:25;;;;;;;31.53;24.47;;;;;;;;;;5054000;28;20524;-71
2021/09/03 03:47:52;;;;;;;26.60;21.37;;;;;;;;;;5053029;28;20451;-71
2021/09/03 03:50:20;;;;;;;28.27;23.20;;;;;;;;;;5053568;28;20476;-72
2021/09/03 03:52:47;;;;;;;30.30;24.30;;;;;;;;;;5053322;28;20971;-71
2021/09/03 03:55:14;;;;;;;29.43;24.90;;;;;;;;;;5053368;28;20449;-71
2021/09/03 03:57:43;;;;;;;29.87;24.57;;;;;;;;;;5052994;28;20532;-72
2021/09/03 04:00:10;;;;;;;32.37;26.13;;;;;;;;;;5053908;28;20443;-72
2021/09/03 04:02:38;;;;;;;31.10;25.50;;;;;;;;;;5053164;28;20981;-71
2021/09/03 04:05:05;;;;;;;35.53;24.53;;;;;;;;;;5053235;28;20808;-71
2021/09/03 04:07:32;;;;;;;31.60;26.60;;;;;;;;;;5053054;28;20476;-72
2021/09/03 04:10:00;;;;;;;33.83;26.00;;;;;;;;;;5052885;28;20454;-71
2021/09/03 04:12:27;;;;;;;27.73;23.70;;;;;;;;;;5054878;28;20471;-71
2021/09/03 04:14:55;;;;;;;28.63;24.30;;;;;;;;;;5057456;28;20472;-71
2021/09/03 04:17:23;;;;;;;38.13;25.27;;;;;;;;;;5057193;28;20441;-71
2021/09/03 04:19:50;;;;;;;30.20;24.20;;;;;;;;;;5056720;28;20449;-71
2021/09/03 04:22:17;;;;;;;33.37;27.77;;;;;;;;;;5057199;28;20474;-71
2021/09/03 04:24:44;;;;;;;31.20;27.13;;;;;;;;;;5057060;28;20441;-73
2021/09/03 04:27:11;;;;;;;30.07;26.50;;;;;;;;;;5057068;28;20804;-72
2021/09/03 04:29:38;;;;;;;29.70;25.47;;;;;;;;;;5057165;28;20530;-71
2021/09/03 04:32:08;;;;;;;29.90;25.20;;;;;;;;;;5057849;28;20453;-70
2021/09/03 04:34:35;;;;;;;30.50;25.40;;;;;;;;;;5076466;28;20830;-71
2021/09/03 04:37:02;;;;;;;36.77;26.20;;;;;;;;;;5076784;28;20514;-71
2021/09/03 04:39:29;;;;;;;33.60;26.10;;;;;;;;;;5076716;28;20434;-71
2021/09/03 04:41:57;;;;;;;29.17;25.53;;;;;;;;;;5076547;28;20481;-71
2021/09/03 04:44:24;;;;;;;34.27;24.70;;;;;;;;;;5076070;28;20448;-71
2021/09/03 04:46:51;;;;;;;27.83;24.27;;;;;;;;;;5076601;28;20436;-71
2021/09/03 04:49:20;;;;;;;30.43;24.60;;;;;;;;;;5076681;28;20475;-71
2021/09/03 04:51:47;;;;;;;28.07;23.27;;;;;;;;;;5076544;28;20839;-71
2021/09/03 04:54:14;;;;;;;33.60;27.07;;;;;;;;;;5076311;28;20444;-71
2021/09/03 04:56:42;;;;;;;29.37;24.03;;;;;;;;;;5076438;28;20520;-71
2021/09/03 04:59:09;;;;;;;34.00;25.70;;;;;;;;;;5076858;28;20454;-71
2021/09/03 05:01:36;;;;;;;33.83;26.20;;;;;;;;;;5076385;28;20575;-71
2021/09/03 05:04:04;;;;;;;39.20;25.00;;;;;;;;;;5073045;28;20536;-71
2021/09/03 05:06:32;;;;;;;30.50;25.77;;;;;;;;;;5075941;28;20446;-71
2021/09/03 05:09:00;;;;;;;28.93;24.10;;;;;;;;;;5075673;28;20450;-67
2021/09/03 05:11:27;;;;;;;28.57;24.33;;;;;;;;;;5075995;28;20570;-68
2021/09/03 05:13:54;;;;;;;29.63;24.80;;;;;;;;;;5075008;28;20497;-69
2021/09/03 05:16:21;;;;;;;31.27;23.83;;;;;;;;;;5074820;28;20441;-69
2021/09/03 05:18:48;;;;;;;32.77;24.77;;;;;;;;;;5075209;28;20567;-68
2021/09/03 05:21:16;;;;;;;29.00;25.20;;;;;;;;;;5074861;28;20947;-69
2021/09/03 05:23:45;;;;;;;33.07;24.93;;;;;;;;;;5073821;28;20452;-68
2021/09/03 05:26:12;;;;;;;30.47;24.83;;;;;;;;;;5075210;28;20448;-68
2021/09/03 05:28:40;;;;;;;33.80;25.90;;;;;;;;;;5075855;28;20436;-68
2021/09/03 05:31:08;;;;;;;32.30;26.80;;;;;;;;;;5075828;28;20923;-66
2021/09/03 05:33:35;;;;;;;29.43;23.67;;;;;;;;;;5075955;28;20814;-68
2021/09/03 05:36:02;;;;;;;33.00;25.67;;;;;;;;;;5075981;28;20524;-72
2021/09/03 05:38:29;;;;;;;33.13;24.00;;;;;;;;;;5075612;28;20445;-72
2021/09/03 05:40:58;;;;;;;33.10;24.70;;;;;;;;;;5075601;28;20532;-73
2021/09/03 05:43:25;;;;;;;36.87;27.80;;;;;;;;;;5075541;28;20484;-72
2021/09/03 05:45:52;;;;;;;29.90;24.80;;;;;;;;;;5075888;28;20445;-72
2021/09/03 05:48:19;;;;;;;27.30;24.50;;;;;;;;;;5075254;28;20471;-71
2021/09/03 05:50:46;;;;;;;36.10;26.40;;;;;;;;;;5075515;28;20440;-72
2021/09/03 05:53:13;;;;;;;31.40;26.70;;;;;;;;;;5075329;28;20539;-72
2021/09/03 05:55:41;;;;;;;38.30;26.97;;;;;;;;;;5074965;28;20455;-72
2021/09/03 05:58:09;;;;;;;31.40;26.40;;;;;;;;;;5075870;28;20430;-72
2021/09/03 06:00:36;;;;;;;29.53;25.47;;;;;;;;;;5074880;28;20445;-72
2021/09/03 06:03:04;;;;;;;33.57;26.20;;;;;;;;;;5074815;28;20484;-72
2021/09/03 06:05:31;;;;;;;31.77;27.17;;;;;;;;;;5075104;28;20442;-72
2021/09/03 06:07:58;;;;;;;31.37;25.80;;;;;;;;;;5074739;28;20473;-72
2021/09/03 06:10:34;;;;;;;30.00;26.20;;;;;;;;;;5075074;28;20442;-72
2021/09/03 06:13:01;;;;;;;33.93;25.87;;;;;;;;;;5074595;28;20439;-72
2021/09/03 06:15:30;;;;;;;32.90;26.60;;;;;;;;;;5074656;28;20810;-73
2021/09/03 06:17:57;;;;;;;34.43;26.40;;;;;;;;;;5074703;28;20441;-72
2021/09/03 06:20:24;;;;;;;30.60;25.60;;;;;;;;;;5075043;28;20441;-73
2021/09/03 06:22:52;;;;;;;35.30;26.40;;;;;;;;;;5075426;28;20481;-72
2021/09/03 06:25:19;;;;;;;34.60;26.87;;;;;;;;;;5074368;28;20437;-73
2021/09/03 06:27:46;;;;;;;30.80;25.47;;;;;;;;;;5074414;28;20445;-72
2021/09/03 06:30:14;;;;;;;32.40;25.23;;;;;;;;;;5074303;28;20933;-72
2021/09/03 06:32:43;;;;;;;35.20;24.10;;;;;;;;;;5074266;28;20455;-72
2021/09/03 06:35:11;;;;;;;35.90;26.40;;;;;;;;;;5074174;28;20443;-72
2021/09/03 06:37:38;;;;;;;29.87;25.50;;;;;;;;;;5074303;28;20442;-72
2021/09/03 06:40:06;;;;;;;27.50;24.33;;;;;;;;;;5074001;28;20448;-72
2021/09/03 06:42:33;;;;;;;31.63;23.97;;;;;;;;;;5074711;28;20477;-72
2021/09/03 06:45:00;;;;;;;29.57;23.93;;;;;;;;;;5074998;28;20442;-72
2021/09/03 06:47:28;;;;;;;30.47;23.57;;;;;;;;;;5073936;28;20946;-72
2021/09/03 06:49:56;;;;;;;34.00;23.33;;;;;;;;;;5073873;28;20557;-72
2021/09/03 06:52:29;;;;;;;28.47;23.27;;;;;;;;;;5074821;28;20436;-72
2021/09/03 06:54:57;;;;;;;32.13;22.50;;;;;;;;;;5074281;28;20426;-72
2021/09/03 06:57:24;;;;;;;25.80;22.53;;;;;;;;;;5074263;28;20831;-72
2021/09/03 06:59:51;;;;;;;29.60;23.87;;;;;;;;;;5074089;28;20437;-72
2021/09/03 07:02:19;;;;;;;26.70;23.50;;;;;;;;;;5074189;28;20839;-73
2021/09/03 07:04:46;;;;;;;28.73;23.63;;;;;;;;;;5074127;28;20451;-72
2021/09/03 07:07:14;;;;;;;27.90;22.30;;;;;;;;;;5073669;28;20443;-72
2021/09/03 07:09:42;;;;;;;29.30;22.73;;;;;;;;;;5074161;28;20804;-72
2021/09/03 07:12:09;;;;;;;29.10;22.10;;;;;;;;;;5073598;28;20441;-72
2021/09/03 07:14:36;;;;;;;25.23;21.00;;;;;;;;;;5073513;28;20444;-72
2021/09/03 07:17:06;;;;;;;25.03;20.47;;;;;;;;;;5073439;28;20922;-72
2021/09/03 07:19:33;;;;;;;27.93;21.40;;;;;;;;;;5074203;28;20468;-72
2021/09/03 07:22:00;;;;;;;26.83;21.50;;;;;;;;;;5073367;28;20452;-72
2021/09/03 07:24:29;;;;;;;24.13;20.40;;;;;;;;;;5074091;28;20791;-72
2021/09/03 07:26:56;;;;;;;31.67;21.23;;;;;;;;;;5074001;28;20448;-72
2021/09/03 07:29:23;;;;;;;27.60;21.33;;;;;;;;;;5074048;28;20438;-72
2021/09/03 07:31:50;;;;;;;23.73;21.13;;;;;;;;;;5073664;28;20441;-72
2021/09/03 07:34:17;;;;;;;32.10;20.67;;;;;;;;;;5073437;28;20445;-72
2021/09/03 07:36:50;;;;;;;22.40;18.40;;;;;;;;;;5073478;28;20454;-72
2021/09/03 07:39:20;;;;;;;30.07;21.50;;;;;;;;;;5073192;28;20423;-72
2021/09/03 07:41:49;;;;;;;24.77;19.80;;;;;;;;;;5074042;28;20541;-72
2021/09/03 07:44:16;;;;;;;23.57;20.10;;;;;;;;;;5073509;28;20476;-72
2021/09/03 07:46:44;;;;;;;27.70;19.03;;;;;;;;;;5073178;28;20453;-73
2021/09/03 07:49:11;;;;;;;27.30;20.17;;;;;;;;;;5073239;28;20472;-72
2021/09/03 07:51:38;;;;;;;25.80;19.97;;;;;;;;;;5073089;28;20449;-72
2021/09/03 07:54:05;;;;;;;22.60;17.30;;;;;;;;;;5073399;28;20449;-72
2021/09/03 07:56:33;;;;;;;25.67;17.50;;;;;;;;;;5073587;28;20432;-72
2021/09/03 07:59:01;;;;;;;28.03;18.50;;;;;;;;;;5073342;28;20469;-72
2021/09/03 08:01:28;;;;;;;21.07;16.17;;;;;;;;;;5073682;28;20953;-72
2021/09/03 08:03:56;;;;;;;23.03;17.43;;;;;;;;;;5073237;28;20483;-72
2021/09/03 08:06:23;;;;;;;20.87;15.00;;;;;;;;;;5073924;28;20443;-72
2021/09/03 08:08:50;;;;;;;19.70;16.07;;;;;;;;;;5072896;28;20441;-72
2021/09/03 08:11:17;;;;;;;19.27;15.27;;;;;;;;;;5073669;28;20437;-72
2021/09/03 08:13:44;;;;;;;19.27;15.13;;;;;;;;;;5073676;28;20532;-72
2021/09/03 08:16:13;;;;;;;18.23;15.93;;;;;;;;;;5072832;28;20460;-72
2021/09/03 08:18:40;;;;;;;17.30;15.43;;;;;;;;;;5072847;28;20956;-72
2021/09/03 08:21:07;;;;;;;23.30;14.73;;;;;;;;;;5073023;28;20444;-72
2021/09/03 08:23:35;;;;;;;28.67;20.67;;;;;;;;;;5073451;28;20479;-72
2021/09/03 08:26:02;;;;;;;25.63;16.70;;;;;;;;;;5073115;28;20488;-72
2021/09/03 08:28:29;;;;;;;19.87;15.73;;;;;;;;;;5073473;28;20888;-72
2021/09/03 08:30:57;;;;;;;21.20;16.03;;;;;;;;;;5072705;28;20999;-72
2021/09/03 08:33:25;;;;;;;21.10;15.17;;;;;;;;;;5073017;28;20870;-72
2021/09/03 08:35:53;;;;;;;23.60;15.07;;;;;;;;;;5073420;28;20462;-72
2021/09/03 08:38:20;;;;;;;18.07;15.03;;;;;;;;;;5073766;28;20451;-73
2021/09/03 08:40:48;;;;;;;18.10;15.00;;;;;;;;;;5072615;28;20957;-73
2021/09/03 08:43:19;;;;;;;18.80;15.60;;;;;;;;;;5072816;28;20926;-73
2021/09/03 08:45:46;;;;;;;19.40;15.13;;;;;;;;;;5073049;28;20432;-72
2021/09/03 08:48:14;;;;;;;19.87;14.97;;;;;;;;;;5073162;28;20451;-72
2021/09/03 08:50:43;;;;;;;18.13;14.60;;;;;;;;;;5073075;28;20516;-73
2021/09/03 08:53:10;;;;;;;20.40;15.00;;;;;;;;;;5072739;28;20448;-72
2021/09/03 08:55:37;;;;;;;18.80;13.20;;;;;;;;;;5072698;28;20660;-73
2021/09/03 08:58:04;;;;;;;16.90;13.73;;;;;;;;;;5072445;28;20437;-72
2021/09/03 09:00:33;;;;;;;15.23;12.77;;;;;;;;;;5075506;28;20532;-72
2021/09/03 09:03:02;;;;;;;18.37;13.37;;;;;;;;;;5075951;28;20999;-72
2021/09/03 09:05:44;;;;;;;18.03;12.47;;;;;;;;;;5075976;28;20443;-73
2021/09/03 09:08:13;;;;;;;13.50;12.10;;;;;;;;;;5076546;28;20444;-72
2021/09/03 09:10:46;;;;;;;13.37;11.97;;;;;;;;;;5075731;28;20453;-73
2021/09/03 09:13:17;;;;;;;19.53;12.10;;;;;;;;;;5076216;28;20481;-72
2021/09/03 09:15:44;;;;;;;33.90;13.40;;;;;;;;;;5076282;28;20443;-72
2021/09/03 09:18:11;;;;;;;24.37;12.13;;;;;;;;;;5075898;28;20977;-72
2021/09/03 09:20:39;;;;;;;13.00;10.87;;;;;;;;;;5075589;28;20445;-72
2021/09/03 09:23:07;;;;;;;14.13;11.33;;;;;;;;;;5076325;28;20822;-73
2021/09/03 09:25:37;;;;;;;13.80;11.47;;;;;;;;;;5075655;28;20517;-73
2021/09/03 09:28:17;;;;;;;13.70;11.13;;;;;;;;;;5075655;28;20557;-72
2021/09/03 09:30:45;;;;;;;14.97;10.60;;;;;;;;;;5075382;28;20994;-72
2021/09/03 09:33:13;;;;;;;16.57;11.20;;;;;;;;;;5075753;28;20470;-72
2021/09/03 09:35:44;;;;;;;19.73;15.20;;;;;;;;;;5075957;28;20871;-72
2021/09/03 09:38:11;;;;;;;17.20;13.37;;;;;;;;;;5075969;28;20517;-73
2021/09/03 09:40:47;;;;;;;15.77;10.17;;;;;;;;;;5075574;28;20453;-72
2021/09/03 09:43:25;;;;;;;16.17;11.90;;;;;;;;;;5075495;28;20485;-72
2021/09/03 09:46:07;;;;;;;15.20;10.80;;;;;;;;;;5075208;28;21023;-72
2021/09/03 09:48:34;;;;;;;18.33;10.93;;;;;;;;;;5074849;28;20834;-72
2021/09/03 09:51:01;;;;;;;24.13;13.30;;;;;;;;;;5075590;28;20425;-72
2021/09/03 09:53:28;;;;;;;41.57;22.20;;;;;;;;;;5075545;28;20450;-72
2021/09/03 09:55:57;;;;;;;25.97;14.70;;;;;;;;;;5075792;28;20443;-72
2021/09/03 09:58:24;;;;;;;15.30;12.80;;;;;;;;;;5075270;28;20447;-73
2021/09/03 10:00:51;;;;;;;15.80;11.53;;;;;;;;;;5075434;28;20449;-72
2021/09/03 10:03:19;;;;;;;18.33;12.20;;;;;;;;;;5074746;28;20977;-73
2021/09/03 10:05:46;;;;;;;21.30;12.10;;;;;;;;;;5075629;28;20445;-73
2021/09/03 10:08:14;;;;;;;13.83;10.33;;;;;;;;;;5075539;28;20438;-73
2021/09/03 10:10:41;;;;;;;16.00;11.00;;;;;;;;;;5074602;28;20450;-72
2021/09/03 10:13:10;;;;;;;15.67;10.73;;;;;;;;;;5074972;28;20814;-73
2021/09/03 10:15:37;;;;;;;11.23;10.03;;;;;;;;;;5074836;28;20530;-73
2021/09/03 10:18:04;;;;;;;17.90;9.60;;;;;;;;;;5074910;28;20763;-73
2021/09/03 10:20:31;;;;;;;11.80;10.00;;;;;;;;;;5074912;28;20443;-73
2021/09/03 10:22:59;;;;;;;14.50;9.70;;;;;;;;;;5074719;28;20442;-73
2021/09/03 10:25:26;;;;;;;12.97;10.97;;;;;;;;;;5074703;28;20446;-73
2021/09/03 10:28:05;;;;;;;14.97;9.10;;;;;;;;;;5074235;28;20447;-72
2021/09/03 10:30:34;;;;;;;11.27;8.07;;;;;;;;;;5074792;28;20521;-73
2021/09/03 10:33:10;;;;;;;8.77;7.93;;;;;;;;;;5074484;28;20449;-72
2021/09/03 10:35:38;;;;;;;11.80;8.50;;;;;;;;;;5074190;28;20435;-73
2021/09/03 10:38:27;;;;;;;12.43;8.77;;;;;;;;;;5074068;28;20533;-72
2021/09/03 10:40:54;;;;;;;10.10;9.03;;;;;;;;;;5074277;28;20440;-73
2021/09/03 10:43:40;;;;;;;13.53;9.17;;;;;;;;;;5073853;28;20578;-73
2021/09/03 10:46:09;;;;;;;11.10;8.97;;;;;;;;;;5074740;28;20423;-73
2021/09/03 10:48:36;;;;;;;16.60;9.47;;;;;;;;;;5073760;28;20466;-72
2021/09/03 10:51:05;;;;;;;12.60;9.40;;;;;;;;;;5074093;28;20800;-72
2021/09/03 10:53:37;;;;;;;11.63;9.60;;;;;;;;;;5074297;28;20519;-72
2021/09/03 10:56:13;;;;;;;15.03;10.60;;;;;;;;;;5074028;28;20443;-72
2021/09/03 10:59:01;;;;;;;9.33;8.33;;;;;;;;;;5073694;28;20511;-72
2021/09/03 11:01:34;;;;;;;15.90;9.17;;;;;;;;;;5067784;28;20953;-73
2021/09/03 11:04:03;;;;;;;13.00;9.23;;;;;;;;;;5073780;28;20471;-72
2021/09/03 11:06:33;;;;;;;12.20;8.30;;;;;;;;;;5073938;28;20432;-72
2021/09/03 11:09:01;;;;;;;17.00;10.30;;;;;;;;;;5073803;28;20807;-72
2021/09/03 11:11:29;;;;;;;16.47;9.70;;;;;;;;;;5073502;28;20448;-72
2021/09/03 11:13:57;;;;;;;11.00;8.87;;;;;;;;;;5073896;28;20451;-73
2021/09/03 11:16:33;;;;;;;12.10;9.60;;;;;;;;;;5073820;28;20471;-72
2021/09/03 11:19:01;;;;;;;13.50;8.60;;;;;;;;;;5073572;28;20913;-72
2021/09/03 11:21:30;;;;;;;10.33;8.90;;;;;;;;;;5073123;28;20527;-72
2021/09/03 11:23:58;;;;;;;12.13;9.17;;;;;;;;;;5073474;28;20475;-72
2021/09/03 11:26:27;;;;;;;12.70;9.93;;;;;;;;;;5073571;28;20449;-73
2021/09/03 11:28:54;;;;;;;10.03;8.80;;;;;;;;;;5073486;28;20442;-73
2021/09/03 11:31:21;;;;;;;10.67;8.57;;;;;;;;;;5073497;28;20771;-73
2021/09/03 11:33:50;;;;;;;14.50;10.50;;;;;;;;;;5073235;28;20456;-72
2021/09/03 11:36:17;;;;;;;10.43;8.37;;;;;;;;;;5074010;28;20440;-73
2021/09/03 11:38:44;;;;;;;12.33;8.80;;;;;;;;;;5073500;28;20531;-72
2021/09/03 11:41:12;;;;;;;11.20;9.40;;;;;;;;;;5073150;28;21005;-72
2021/09/03 11:43:40;;;;;;;16.03;9.90;;;;;;;;;;5073071;28;21063;-72
2021/09/03 11:46:20;;;;;;;15.10;11.30;;;;;;;;;;5073089;28;20440;-72
2021/09/03 11:48:48;;;;;;;12.33;9.00;;;;;;;;;;5073132;28;20479;-72
2021/09/03 11:51:22;;;;;;;13.17;9.97;;;;;;;;;;5073298;28;20502;-73
2021/09/03 11:53:51;;;;;;;11.50;9.77;;;;;;;;;;5073724;28;20505;-73
2021/09/03 11:56:18;;;;;;;17.50;10.37;;;;;;;;;;5072915;28;20464;-73
2021/09/03 11:58:46;;;;;;;10.17;9.13;;;;;;;;;;5073040;28;20456;-73
2021/09/03 12:01:13;;;;;;;11.10;9.90;;;;;;;;;;5073118;28;20452;-73
2021/09/03 12:03:44;;;;;;;11.67;10.17;;;;;;;;;;5073197;28;20447;-72
2021/09/03 12:06:14;;;;;;;13.53;9.20;;;;;;;;;;5073005;28;20416;-73
2021/09/03 12:08:43;;;;;;;13.87;11.73;;;;;;;;;;5072999;28;20424;-72
2021/09/03 12:11:11;;;;;;;15.53;9.47;;;;;;;;;;5072857;28;20466;-72
2021/09/03 12:13:40;;;;;;;11.20;9.73;;;;;;;;;;5072839;28;20442;-73
2021/09/03 12:16:09;;;;;;;10.27;8.97;;;;;;;;;;5073588;28;20476;-72
2021/09/03 12:18:38;;;;;;;11.70;10.47;;;;;;;;;;5073634;28;20437;-72
2021/09/03 12:21:09;;;;;;;10.37;8.90;;;;;;;;;;5073411;28;20531;-73
2021/09/03 12:23:37;;;;;;;14.70;9.80;;;;;;;;;;5072645;28;20452;-73
2021/09/03 12:26:07;;;;;;;14.43;11.03;;;;;;;;;;5072540;28;20450;-72
2021/09/03 12:28:35;;;;;;;15.77;10.03;;;;;;;;;;5072890;28;20444;-73
2021/09/03 12:31:06;;;;;;;9.93;8.93;;;;;;;;;;5073052;28;20436;-73
2021/09/03 12:33:33;;;;;;;16.73;10.20;;;;;;;;;;5074837;28;20428;-72
2021/09/03 12:36:04;;;;;;;16.90;13.53;;;;;;;;;;5076934;28;20527;-73
2021/09/03 12:38:33;;;;;;;13.67;11.30;;;;;;;;;;5076712;28;20850;-72
2021/09/03 12:41:13;;;;;;;18.03;9.47;;;;;;;;;;5076656;28;20444;-73
2021/09/03 12:43:40;;;;;;;10.07;8.63;;;;;;;;;;5076728;28;20424;-72
2021/09/03 12:46:09;;;;;;;13.43;9.50;;;;;;;;;;5076096;28;20446;-68
2021/09/03 12:48:36;;;;;;;12.80;10.10;;;;;;;;;;5076801;28;20543;-70
2021/09/03 12:51:03;;;;;;;13.97;10.20;;;;;;;;;;5077079;28;20806;-71
2021/09/03 12:53:31;;;;;;;15.10;9.67;;;;;;;;;;5076742;28;20523;-71
2021/09/03 12:55:58;;;;;;;11.37;9.10;;;;;;;;;;5076009;28;20536;-71
2021/09/03 12:58:28;;;;;;;11.13;9.37;;;;;;;;;;5076146;28;20966;-70
2021/09/03 13:00:56;;;;;;;11.73;8.57;;;;;;;;;;5076276;28;20449;-69
2021/09/03 13:03:24;;;;;;;9.30;8.00;;;;;;;;;;5076238;28;20454;-69
2021/09/03 13:05:51;;;;;;;14.00;11.60;;;;;;;;;;5074613;28;20650;-70
2021/09/03 13:08:18;;;;;;;13.10;10.50;;;;;;;;;;5076380;28;20529;-70
2021/09/03 13:10:45;;;;;;;11.17;10.00;;;;;;;;;;5076222;28;20446;-70
2021/09/03 13:13:12;;;;;;;9.40;8.37;;;;;;;;;;5075559;28;20433;-70
2021/09/03 13:15:41;;;;;;;12.00;9.17;;;;;;;;;;5075921;28;20445;-70
2021/09/03 13:18:08;;;;;;;9.60;8.60;;;;;;;;;;5075725;28;20453;-70
2021/09/03 13:20:36;;;;;;;10.40;9.10;;;;;;;;;;5075759;28;20447;-70
2021/09/03 13:23:03;;;;;;;11.77;9.60;;;;;;;;;;5074943;28;20527;-70
2021/09/03 13:25:31;;;;;;;9.30;8.50;;;;;;;;;;5074032;28;20478;-70
2021/09/03 13:27:58;;;;;;;9.80;8.80;;;;;;;;;;5074336;28;20442;-70
2021/09/03 13:30:26;;;;;;;13.53;10.33;;;;;;;;;;5075287;28;20452;-70
2021/09/03 13:32:54;;;;;;;9.53;8.60;;;;;;;;;;5074619;28;20492;-70
2021/09/03 13:35:21;;;;;;;12.87;8.60;;;;;;;;;;5075111;28;20440;-71
2021/09/03 13:37:49;;;;;;;10.50;8.60;;;;;;;;;;5092617;28;20442;-70
2021/09/03 13:40:16;;;;;;;11.50;9.23;;;;;;;;;;5096510;28;20590;-71
2021/09/03 13:42:44;;;;;;;13.03;9.37;;;;;;;;;;5095259;28;20926;-70
2021/09/03 13:45:11;;;;;;;12.50;9.13;;;;;;;;;;5095046;28;20485;-70
2021/09/03 13:47:40;;;;;;;11.10;8.87;;;;;;;;;;5095016;28;20445;-70
2021/09/03 13:50:10;;;;;;;11.00;8.37;;;;;;;;;;5095541;28;20569;-70
2021/09/03 13:52:37;;;;;;;12.73;9.40;;;;;;;;;;5095034;28;20444;-70
2021/09/03 13:55:05;;;;;;;11.40;10.20;;;;;;;;;;5095412;28;20447;-70
2021/09/03 13:57:32;;;;;;;10.83;8.20;;;;;;;;;;5095196;28;20936;-69
2021/09/03 14:00:00;;;;;;;9.40;7.77;;;;;;;;;;5094714;28;20457;-70
2021/09/03 14:02:27;;;;;;;10.87;9.47;;;;;;;;;;5093896;28;20447;-71
2021/09/03 14:04:54;;;;;;;10.93;8.93;;;;;;;;;;5093804;28;20474;-70
2021/09/03 14:07:24;;;;;;;10.83;8.90;;;;;;;;;;5080423;28;20503;-71
2021/09/03 14:09:51;;;;;;;14.17;9.30;;;;;;;;;;5074321;28;20937;-71
2021/09/03 14:12:20;;;;;;;8.97;7.90;;;;;;;;;;5074172;28;20456;-73
2021/09/03 14:14:47;;;;;;;11.80;9.00;;;;;;;;;;5074549;28;20457;-71
2021/09/03 14:17:14;;;;;;;10.00;7.20;;;;;;;;;;5074061;28;20945;-70
2021/09/03 14:19:41;;;;;;;10.93;8.60;;;;;;;;;;5074376;28;20552;-68
2021/09/03 14:22:09;;;;;;;10.30;7.83;;;;;;;;;;5074405;28;20437;-70
2021/09/03 14:24:37;;;;;;;16.03;8.30;;;;;;;;;;5073329;28;20481;-68
2021/09/03 14:27:05;;;;;;;10.90;8.93;;;;;;;;;;5074182;28;20531;-69